SAS1315 ENAL-ENGM
Flight info
| Callsign | SAS1315 |
|---|---|
| Flight time | N/A |
| Altitude | 37000 |
| Route | GIGIR DCT KEMIV DCT BELGU |
| Aircraft | A21N/M-SDE2E3FGHIRWXY/LB1 |
Departure
| Time | 2026-05-08 10:41 |
|---|---|
| Airport | Ålesund Airport (ENAL) |
Arrival
| Time | N/A |
|---|---|
| Airport | Oslo-Gardermoen International Airport (ENGM) |
| Time | Latitude | Longitude | Altitude | Speed | Heading |
|---|---|---|---|---|---|
| 2026-05-08 10:24 | 62.55913 | 6.11463 | 70 ft | 0 kts | 154° |
| 2026-05-08 10:34 | 62.55916 | 6.11460 | 71 ft | 2 kts | 154° |
| 2026-05-08 10:34 | 62.55931 | 6.11445 | 67 ft | 2 kts | 156° |
| 2026-05-08 10:35 | 62.55946 | 6.11432 | 68 ft | 2 kts | 162° |
| 2026-05-08 10:35 | 62.55962 | 6.11430 | 67 ft | 2 kts | 219° |
| 2026-05-08 10:35 | 62.55967 | 6.11444 | 67 ft | 0 kts | 245° |
| 2026-05-08 10:37 | 62.55954 | 6.11383 | 69 ft | 12 kts | 245° |
| 2026-05-08 10:38 | 62.55905 | 6.11158 | 72 ft | 18 kts | 250° |
| 2026-05-08 10:38 | 62.55919 | 6.10877 | 75 ft | 20 kts | 284° |
| 2026-05-08 10:38 | 62.55944 | 6.10579 | 74 ft | 22 kts | 256° |
| 2026-05-08 10:38 | 62.55872 | 6.10236 | 57 ft | 29 kts | 244° |
| 2026-05-08 10:39 | 62.55785 | 6.09840 | 48 ft | 21 kts | 245° |
| 2026-05-08 10:39 | 62.55718 | 6.09534 | 49 ft | 24 kts | 244° |
| 2026-05-08 10:39 | 62.55639 | 6.09193 | 47 ft | 26 kts | 233° |
| 2026-05-08 10:39 | 62.55581 | 6.09041 | 46 ft | 2 kts | 278° |
| 2026-05-08 10:40 | 62.55600 | 6.09013 | 46 ft | 5 kts | 356° |
| 2026-05-08 10:40 | 62.55609 | 6.09033 | 46 ft | 2 kts | 68° |
| 2026-05-08 10:40 | 62.55615 | 6.09065 | 46 ft | 3 kts | 66° |
| 2026-05-08 10:40 | 62.55668 | 6.09310 | 45 ft | 57 kts | 65° |
| 2026-05-08 10:41 | 62.55981 | 6.10740 | 84 ft | 153 kts | 64° |
| 2026-05-08 10:41 | 62.56517 | 6.13152 | 555 ft | 193 kts | 66° |
| 2026-05-08 10:41 | 62.57130 | 6.15944 | 1457 ft | 219 kts | 66° |
| 2026-05-08 10:41 | 62.57826 | 6.19177 | 2260 ft | 253 kts | 68° |
| 2026-05-08 10:42 | 62.58603 | 6.22835 | 3249 ft | 278 kts | 68° |
| 2026-05-08 10:42 | 62.59424 | 6.26744 | 4381 ft | 298 kts | 68° |
| 2026-05-08 10:42 | 62.60298 | 6.30933 | 5611 ft | 301 kts | 68° |
| 2026-05-08 10:42 | 62.61123 | 6.34850 | 6668 ft | 270 kts | 68° |
| 2026-05-08 10:43 | 62.61511 | 6.36671 | 7115 ft | 265 kts | 68° |